Time;durP1;ratioP1;P1;durP2;ratioP2;P2;SDS_P1;SDS_P2;PMS_P1;PMS_P2;Temp;Humidity;BMP_temperature;BMP_pressure;BME280_temperature;BME280_humidity;BME280_pressure;Samples;Min_cycle;Max_cycle;Signal;HPM_P1;HPM_P2
2021/11/23 00:01:46;;;;;;;1310.20;287.63;;;5.90;99.90;;;;;;6250926;22;20555;-67
2021/11/23 00:04:34;;;;;;;1999.90;623.60;;;5.90;99.90;;;;;;6288391;22;20432;-67
2021/11/23 00:07:02;;;;;;;1707.63;383.80;;;6.00;99.90;;;;;;6287720;22;20389;-67
2021/11/23 00:09:31;;;;;;;1647.43;344.70;;;6.00;99.90;;;;;;6288329;22;20451;-67
2021/11/23 00:11:59;;;;;;;1600.30;317.60;;;6.00;99.90;;;;;;6288514;22;20491;-67
2021/11/23 00:14:27;;;;;;;657.10;152.43;;;6.00;99.90;;;;;;6251466;22;20436;-67
2021/11/23 00:16:55;;;;;;;1286.50;234.53;;;6.10;99.90;;;;;;6288143;22;20397;-67
2021/11/23 00:19:23;;;;;;;989.97;223.93;;;6.10;99.90;;;;;;6288802;22;20488;-67
2021/11/23 00:21:53;;;;;;;728.37;161.63;;;6.10;99.90;;;;;;6288854;22;20428;-66
2021/11/23 00:24:21;;;;;;;418.07;104.83;;;6.10;99.90;;;;;;6288017;22;20418;-67
2021/11/23 00:26:49;;;;;;;370.00;85.23;;;6.20;99.90;;;;;;6288849;22;20438;-67
2021/11/23 00:29:17;;;;;;;270.47;39.30;;;6.20;99.90;;;;;;6287918;22;20425;-67
2021/11/23 00:31:45;;;;;;;211.43;26.47;;;6.20;99.90;;;;;;6278035;22;20408;-67
2021/11/23 00:34:13;;;;;;;394.10;98.47;;;6.30;99.90;;;;;;6288259;22;20427;-67
2021/11/23 00:36:41;;;;;;;171.30;26.57;;;6.30;99.90;;;;;;6250679;22;20413;-67
2021/11/23 00:39:11;;;;;;;213.50;33.10;;;6.30;99.90;;;;;;6287938;22;20396;-67
2021/11/23 00:41:39;;;;;;;222.27;27.07;;;6.40;99.90;;;;;;6287906;22;20393;-67
2021/11/23 00:44:07;;;;;;;301.77;40.87;;;6.40;99.90;;;;;;6287351;22;20884;-67
2021/11/23 00:46:35;;;;;;;93.40;15.67;;;6.40;99.90;;;;;;6277372;22;20404;-67
2021/11/23 00:49:03;;;;;;;207.10;30.70;;;6.40;99.90;;;;;;6288029;22;20397;-67
2021/11/23 00:51:31;;;;;;;187.63;24.37;;;6.50;99.90;;;;;;6288136;22;20393;-67
2021/11/23 00:53:59;;;;;;;174.27;28.87;;;6.50;99.90;;;;;;6287963;22;20903;-67
2021/11/23 00:56:29;;;;;;;279.10;23.93;;;6.50;99.90;;;;;;6250507;22;20906;-67
2021/11/23 00:58:57;;;;;;;167.73;28.70;;;6.50;99.90;;;;;;6288169;22;20393;-67
2021/11/23 01:01:25;;;;;;;223.63;26.90;;;6.50;99.90;;;;;;6287353;22;20397;-67
2021/11/23 01:03:54;;;;;;;213.87;25.23;;;6.50;99.90;;;;;;6287916;22;20453;-67
2021/11/23 01:06:22;;;;;;;219.50;28.97;;;6.60;99.90;;;;;;6287871;22;20403;-67
2021/11/23 01:08:51;;;;;;;149.77;19.07;;;6.60;99.90;;;;;;6277310;22;20952;-67
2021/11/23 01:11:20;;;;;;;197.77;25.50;;;6.60;99.90;;;;;;6277789;22;20429;-67
2021/11/23 01:13:51;;;;;;;111.00;16.73;;;6.60;99.90;;;;;;6250144;22;20421;-67
2021/11/23 01:16:19;;;;;;;244.77;23.00;;;6.60;99.90;;;;;;6287939;22;20789;-67
2021/11/23 01:18:48;;;;;;;194.80;28.83;;;6.60;99.90;;;;;;6287503;22;20389;-67
2021/11/23 01:21:16;;;;;;;219.67;31.07;;;6.60;99.90;;;;;;6250349;22;20433;-67
2021/11/23 01:23:44;;;;;;;277.13;35.47;;;6.60;99.90;;;;;;6292523;22;20413;-67
2021/11/23 01:26:13;;;;;;;119.07;17.87;;;6.60;99.90;;;;;;6263083;22;20408;-67
2021/11/23 01:28:41;;;;;;;243.07;30.83;;;6.70;99.90;;;;;;6262300;22;20504;-67
2021/11/23 01:31:11;;;;;;;283.70;22.83;;;6.70;99.90;;;;;;6292019;22;20425;-67
2021/11/23 01:33:39;;;;;;;99.73;15.10;;;6.70;99.90;;;;;;6287903;22;20413;-67
2021/11/23 01:36:07;;;;;;;247.90;31.03;;;6.70;99.90;;;;;;6287752;22;20425;-67
2021/11/23 01:38:35;;;;;;;142.40;22.43;;;6.70;99.90;;;;;;6287589;22;20480;-67
2021/11/23 01:41:03;;;;;;;218.83;25.33;;;6.80;99.90;;;;;;6287391;22;20736;-67
2021/11/23 01:43:31;;;;;;;121.23;19.33;;;6.80;99.90;;;;;;6287599;22;20412;-67
2021/11/23 01:46:00;;;;;;;138.03;17.53;;;6.80;99.90;;;;;;6286434;22;20472;-67
2021/11/23 01:48:30;;;;;;;182.93;29.20;;;6.90;99.90;;;;;;6286244;22;20429;-67
2021/11/23 01:50:58;;;;;;;157.33;20.70;;;6.90;99.90;;;;;;6285815;22;20499;-67
2021/11/23 01:53:26;;;;;;;192.03;25.63;;;6.90;99.90;;;;;;6286498;22;20408;-67
2021/11/23 01:55:55;;;;;;;154.00;22.43;;;6.90;99.90;;;;;;6286053;22;20479;-67
2021/11/23 01:58:23;;;;;;;179.00;26.73;;;6.90;99.90;;;;;;6286377;22;20398;-67
2021/11/23 02:00:51;;;;;;;33.47;14.93;;;6.90;99.90;;;;;;6286126;22;20421;-67
2021/11/23 02:03:20;;;;;;;166.87;29.13;;;7.00;99.90;;;;;;6248336;22;20409;-67
2021/11/23 02:05:49;;;;;;;171.67;27.67;;;7.00;99.90;;;;;;6286106;22;20437;-67
2021/11/23 02:08:18;;;;;;;141.30;23.47;;;7.00;99.90;;;;;;6285827;22;20891;-67
2021/11/23 02:10:46;;;;;;;96.93;21.00;;;7.00;99.90;;;;;;6276670;22;20511;-67
2021/11/23 02:13:14;;;;;;;196.20;28.53;;;7.00;99.90;;;;;;6285898;22;20408;-67
2021/11/23 02:15:42;;;;;;;190.30;31.47;;;7.00;99.90;;;;;;6248762;22;20415;-67
2021/11/23 02:18:15;;;;;;;170.80;22.83;;;7.10;99.90;;;;;;6286186;22;20787;-67
2021/11/23 02:20:44;;;;;;;204.70;21.60;;;7.10;99.90;;;;;;6286065;22;20398;-67
2021/11/23 02:23:13;;;;;;;178.93;28.40;;;7.10;99.90;;;;;;6285960;22;20485;-67
2021/11/23 02:25:42;;;;;;;106.83;19.00;;;7.10;99.90;;;;;;6285862;22;20428;-67
2021/11/23 02:28:11;;;;;;;142.77;25.70;;;7.10;99.90;;;;;;6286036;22;20490;-67
2021/11/23 02:30:44;;;;;;;195.30;20.47;;;7.10;99.90;;;;;;6286014;22;20460;-68
2021/11/23 02:33:13;;;;;;;152.10;23.23;;;7.10;99.90;;;;;;6285953;22;20868;-68
2021/11/23 02:35:41;;;;;;;109.20;22.67;;;7.10;99.90;;;;;;6285620;22;20397;-67
2021/11/23 02:38:12;;;;;;;218.83;31.40;;;7.10;99.90;;;;;;6286264;22;20393;-67
2021/11/23 02:40:40;;;;;;;175.30;23.43;;;7.20;99.90;;;;;;6286454;22;20374;-67
2021/11/23 02:43:08;;;;;;;191.43;24.53;;;7.20;99.90;;;;;;6286101;22;20393;-68
2021/11/23 02:45:36;;;;;;;219.93;30.83;;;7.20;99.90;;;;;;6231222;22;1119647;-67
2021/11/23 02:48:08;;;;;;;238.57;37.63;;;7.20;99.90;;;;;;6249760;22;20174;-67
2021/11/23 02:50:37;;;;;;;201.03;28.77;;;7.20;99.90;;;;;;6289135;22;20414;-67
2021/11/23 02:53:06;;;;;;;86.07;21.60;;;7.20;99.90;;;;;;6278560;22;20492;-67
2021/11/23 02:55:36;;;;;;;91.53;22.27;;;7.20;99.90;;;;;;6289599;22;20555;-67
2021/11/23 02:58:06;;;;;;;233.23;33.33;;;7.30;99.90;;;;;;6289281;22;20895;-67
2021/11/23 03:00:36;;;;;;;184.67;26.13;;;7.30;99.90;;;;;;6289165;22;20719;-68
2021/11/23 03:03:04;;;;;;;230.13;31.23;;;7.30;99.90;;;;;;6288733;22;20784;-67
2021/11/23 03:05:33;;;;;;;231.13;30.77;;;7.30;99.90;;;;;;6279076;22;20795;-67
2021/11/23 03:08:02;;;;;;;67.43;23.33;;;7.30;99.90;;;;;;6289450;22;20392;-68
2021/11/23 03:10:31;;;;;;;179.03;31.17;;;7.30;99.90;;;;;;6289363;22;20796;-67
2021/11/23 03:13:02;;;;;;;198.67;30.03;;;7.40;99.90;;;;;;6288993;22;20904;-67
2021/11/23 03:15:30;;;;;;;135.43;26.73;;;7.30;99.90;;;;;;6288904;22;20438;-67
2021/11/23 03:17:59;;;;;;;196.97;28.60;;;7.40;99.90;;;;;;6289166;22;20394;-68
2021/11/23 03:20:28;;;;;;;145.87;28.53;;;7.40;99.90;;;;;;6289047;22;20881;-67
2021/11/23 03:22:58;;;;;;;180.97;26.67;;;7.40;99.90;;;;;;6251774;22;20406;-68
2021/11/23 03:25:27;;;;;;;239.57;38.50;;;7.40;99.90;;;;;;6278273;22;20504;-67
2021/11/23 03:27:56;;;;;;;173.13;30.50;;;7.40;99.90;;;;;;6288734;22;20403;-67
2021/11/23 03:30:27;;;;;;;190.10;29.57;;;7.40;99.90;;;;;;6278567;22;20488;-67
2021/11/23 03:33:00;;;;;;;146.33;25.00;;;7.40;99.90;;;;;;6289585;22;20447;-68
2021/11/23 03:35:31;;;;;;;208.27;34.10;;;7.40;99.90;;;;;;6289365;22;20812;-67
2021/11/23 03:38:00;;;;;;;217.93;31.07;;;7.40;99.90;;;;;;6289332;22;20454;-68
2021/11/23 03:40:31;;;;;;;254.43;38.47;;;7.50;99.90;;;;;;6289458;22;20425;-67
2021/11/23 03:42:59;;;;;;;148.67;28.00;;;7.40;99.90;;;;;;6288768;22;20404;-68
2021/11/23 03:45:29;;;;;;;159.67;29.97;;;7.50;99.90;;;;;;6288527;22;20503;-67
2021/11/23 03:47:58;;;;;;;138.70;26.63;;;7.50;99.90;;;;;;6278476;22;20412;-67
2021/11/23 03:50:28;;;;;;;236.60;33.27;;;7.50;99.90;;;;;;6288245;22;20878;-67
2021/11/23 03:52:57;;;;;;;211.60;31.00;;;7.50;99.90;;;;;;6289056;22;20466;-68
2021/11/23 03:55:27;;;;;;;177.97;27.13;;;7.50;99.90;;;;;;6288469;22;20404;-68
2021/11/23 03:57:57;;;;;;;163.17;27.70;;;7.50;99.90;;;;;;6288678;22;20885;-68
2021/11/23 04:00:25;;;;;;;181.50;37.73;;;7.50;99.90;;;;;;6251070;22;20443;-67
2021/11/23 04:02:55;;;;;;;213.77;32.47;;;7.50;99.90;;;;;;6288682;22;20389;-68
2021/11/23 04:05:24;;;;;;;113.03;22.53;;;7.50;99.90;;;;;;6288516;22;20492;-68
2021/11/23 04:07:52;;;;;;;133.60;24.33;;;7.50;99.90;;;;;;6288349;22;20487;-67
2021/11/23 04:10:20;;;;;;;180.30;28.53;;;7.50;99.90;;;;;;6277845;22;20489;-68
2021/11/23 04:12:50;;;;;;;213.40;36.73;;;7.50;99.90;;;;;;6288433;22;20426;-68
2021/11/23 04:15:18;;;;;;;206.83;37.83;;;7.50;99.90;;;;;;6250597;22;20430;-67
2021/11/23 04:17:48;;;;;;;145.83;28.63;;;7.50;99.90;;;;;;6288549;22;20814;-68
2021/11/23 04:20:18;;;;;;;134.47;24.03;;;7.40;99.90;;;;;;6288221;22;20422;-67
2021/11/23 04:22:46;;;;;;;159.43;25.30;;;7.40;99.90;;;;;;6288377;22;20479;-68
2021/11/23 04:25:15;;;;;;;162.43;34.77;;;7.40;99.90;;;;;;6288042;22;20751;-67
2021/11/23 04:27:43;;;;;;;99.27;28.00;;;7.40;99.90;;;;;;6288635;22;20399;-68
2021/11/23 04:30:13;;;;;;;220.77;34.73;;;7.40;99.90;;;;;;6278095;22;20405;-68
2021/11/23 04:32:42;;;;;;;201.27;35.83;;;7.40;99.90;;;;;;6288063;22;20428;-67
2021/11/23 04:35:11;;;;;;;232.70;38.77;;;7.30;99.90;;;;;;6250833;22;20485;-68
2021/11/23 04:37:41;;;;;;;142.10;27.10;;;7.40;99.90;;;;;;6250301;22;20475;-67
2021/11/23 04:40:11;;;;;;;246.90;33.73;;;7.40;99.90;;;;;;6250736;22;20482;-67
2021/11/23 04:42:40;;;;;;;143.20;25.10;;;7.40;99.90;;;;;;6288202;22;20458;-67
2021/11/23 04:45:10;;;;;;;70.57;23.17;;;7.40;99.90;;;;;;6287766;22;20439;-68
2021/11/23 04:47:39;;;;;;;193.10;29.07;;;7.40;99.90;;;;;;6288117;22;20387;-67
2021/11/23 04:50:10;;;;;;;202.93;33.37;;;7.40;99.90;;;;;;6288509;22;20397;-68
2021/11/23 04:52:39;;;;;;;142.17;25.37;;;7.40;99.90;;;;;;6287739;22;20416;-67
2021/11/23 04:55:09;;;;;;;128.07;32.67;;;7.40;99.90;;;;;;6288028;22;20505;-68
2021/11/23 04:57:37;;;;;;;83.13;20.97;;;7.50;99.90;;;;;;6250266;22;20509;-67
2021/11/23 05:00:08;;;;;;;169.03;30.13;;;7.50;99.90;;;;;;6287825;22;20751;-68
2021/11/23 05:02:36;;;;;;;179.37;26.57;;;7.50;99.90;;;;;;6288826;22;20747;-67
2021/11/23 05:05:05;;;;;;;185.70;31.13;;;7.50;99.90;;;;;;6250322;22;20751;-67
2021/11/23 05:07:33;;;;;;;191.40;33.37;;;7.50;99.90;;;;;;6287910;22;20487;-67
2021/11/23 05:10:03;;;;;;;137.83;32.97;;;7.50;99.90;;;;;;6277655;22;20414;-67
2021/11/23 05:12:31;;;;;;;203.73;35.70;;;7.50;99.90;;;;;;6287520;22;20979;-67
2021/11/23 05:14:59;;;;;;;86.67;26.53;;;7.50;99.90;;;;;;6287483;22;20907;-67
2021/11/23 05:17:27;;;;;;;204.13;26.23;;;7.50;99.90;;;;;;6250352;22;20904;-67
2021/11/23 05:19:55;;;;;;;240.87;43.20;;;7.50;99.90;;;;;;6277529;22;20411;-67
2021/11/23 05:22:23;;;;;;;294.70;33.17;;;7.50;99.90;;;;;;6250257;22;20825;-68
2021/11/23 05:24:52;;;;;;;81.70;23.83;;;7.50;99.90;;;;;;6287541;22;20419;-67
2021/11/23 05:27:21;;;;;;;133.40;27.90;;;7.60;99.90;;;;;;6277486;22;20425;-67
2021/11/23 05:29:49;;;;;;;202.63;27.50;;;7.60;99.90;;;;;;6287909;22;20864;-67
2021/11/23 05:32:17;;;;;;;219.77;35.37;;;7.60;99.90;;;;;;6276936;22;21000;-67
2021/11/23 05:34:45;;;;;;;161.80;31.97;;;7.60;99.90;;;;;;6250342;22;20433;-67
2021/11/23 05:37:13;;;;;;;150.97;29.13;;;7.60;99.90;;;;;;6286997;22;20397;-67
2021/11/23 05:39:41;;;;;;;229.07;38.67;;;7.60;99.90;;;;;;6287521;22;20486;-67
2021/11/23 05:42:10;;;;;;;102.13;23.03;;;7.60;99.90;;;;;;6287304;22;20396;-67
2021/11/23 05:44:39;;;;;;;159.20;28.23;;;7.60;99.90;;;;;;6284871;22;20421;-67
2021/11/23 05:47:07;;;;;;;191.50;26.40;;;7.60;99.90;;;;;;6255547;22;20421;-67
2021/11/23 05:49:36;;;;;;;232.70;37.20;;;7.60;99.90;;;;;;6294194;22;20392;-67
2021/11/23 05:52:04;;;;;;;147.20;26.50;;;7.60;99.90;;;;;;6293570;22;20424;-67
2021/11/23 05:54:33;;;;;;;165.83;31.63;;;7.60;99.90;;;;;;6292370;22;20421;-67
2021/11/23 05:57:01;;;;;;;217.93;38.07;;;7.60;99.90;;;;;;6293895;22;20878;-67
2021/11/23 05:59:29;;;;;;;94.90;26.40;;;7.70;99.90;;;;;;6297335;22;20402;-67
2021/11/23 06:02:01;;;;;;;190.97;31.53;;;7.60;99.90;;;;;;6298708;22;20389;-67
2021/11/23 06:04:29;;;;;;;196.70;36.73;;;7.70;99.90;;;;;;6294373;22;20422;-68
2021/11/23 06:06:57;;;;;;;157.63;29.93;;;7.70;99.90;;;;;;6297736;22;20424;-68
2021/11/23 06:09:25;;;;;;;127.63;28.93;;;7.70;99.90;;;;;;6298475;22;20396;-68
2021/11/23 06:11:53;;;;;;;112.57;26.57;;;7.70;99.90;;;;;;6290828;22;20387;-68
2021/11/23 06:14:22;;;;;;;196.77;29.13;;;7.70;99.90;;;;;;6287498;22;20420;-68
2021/11/23 06:16:50;;;;;;;161.63;32.67;;;7.70;99.90;;;;;;6287590;22;20483;-68
2021/11/23 06:19:19;;;;;;;160.90;35.20;;;7.70;99.90;;;;;;6287840;22;20490;-68
2021/11/23 06:21:48;;;;;;;250.23;37.70;;;7.70;99.90;;;;;;6249887;22;20411;-68
2021/11/23 06:24:16;;;;;;;156.23;32.70;;;7.70;99.90;;;;;;6287087;22;20415;-68
2021/11/23 06:26:44;;;;;;;89.40;26.13;;;7.70;99.90;;;;;;6249821;22;20422;-68
2021/11/23 06:29:12;;;;;;;194.87;29.50;;;7.70;99.90;;;;;;6287036;22;20482;-68
2021/11/23 06:31:40;;;;;;;151.00;29.10;;;7.70;99.90;;;;;;6287199;22;20404;-68
2021/11/23 06:34:09;;;;;;;81.00;21.80;;;7.70;99.90;;;;;;6286794;22;20438;-68
2021/11/23 06:36:39;;;;;;;180.40;30.43;;;7.70;99.90;;;;;;6287837;22;20397;-68
2021/11/23 06:39:08;;;;;;;192.97;36.20;;;7.70;99.90;;;;;;6286931;22;20404;-68
2021/11/23 06:41:36;;;;;;;72.10;21.70;;;7.70;99.90;;;;;;6287642;22;20395;-68
2021/11/23 06:44:04;;;;;;;125.00;26.00;;;7.70;99.90;;;;;;6286868;22;20418;-68
2021/11/23 06:46:33;;;;;;;217.07;32.50;;;7.70;99.90;;;;;;6249717;22;20914;-68
2021/11/23 06:49:03;;;;;;;138.30;27.70;;;7.70;99.90;;;;;;6277028;22;20431;-68
2021/11/23 06:51:31;;;;;;;173.53;30.37;;;7.60;99.90;;;;;;6276619;22;20479;-68
2021/11/23 06:54:01;;;;;;;163.30;27.70;;;7.70;99.90;;;;;;6249455;22;20505;-68
2021/11/23 06:56:29;;;;;;;156.43;23.83;;;7.70;99.90;;;;;;6249419;22;20518;-68
2021/11/23 06:58:57;;;;;;;163.30;34.23;;;7.60;99.90;;;;;;6287122;22;20397;-68
2021/11/23 07:01:26;;;;;;;108.63;25.57;;;7.60;99.90;;;;;;6287227;22;20866;-68
2021/11/23 07:03:54;;;;;;;170.97;25.80;;;7.60;99.90;;;;;;6287556;22;20414;-68
2021/11/23 07:06:22;;;;;;;91.90;26.07;;;7.60;99.90;;;;;;6286902;22;20421;-68
2021/11/23 07:08:51;;;;;;;182.60;31.83;;;7.60;99.90;;;;;;6249712;22;20879;-68
2021/11/23 07:11:20;;;;;;;226.27;35.83;;;7.60;99.90;;;;;;6287100;22;20426;-68
2021/11/23 07:13:48;;;;;;;117.10;21.63;;;7.60;99.90;;;;;;6249664;22;20538;-68
2021/11/23 07:16:16;;;;;;;109.93;26.40;;;7.60;99.90;;;;;;6287357;22;20425;-68
2021/11/23 07:18:44;;;;;;;122.93;28.77;;;7.60;99.90;;;;;;6276707;22;20781;-68
2021/11/23 07:21:12;;;;;;;152.57;27.70;;;7.60;99.90;;;;;;6287053;22;20903;-68
2021/11/23 07:23:58;;;;;;;73.10;22.83;;;7.60;99.90;;;;;;6249351;22;20837;-68
2021/11/23 07:26:30;;;;;;;143.43;23.27;;;7.60;99.90;;;;;;6249483;22;20740;-68
2021/11/23 07:28:59;;;;;;;129.30;27.90;;;7.60;99.90;;;;;;6287357;22;20496;-68
2021/11/23 07:31:27;;;;;;;221.30;36.83;;;7.70;99.90;;;;;;6287120;22;20469;-68
2021/11/23 07:33:55;;;;;;;147.07;23.83;;;7.70;99.90;;;;;;6249106;22;20537;-68
2021/11/23 07:36:24;;;;;;;184.77;26.70;;;7.70;99.90;;;;;;6288910;22;20403;-68
2021/11/23 07:38:54;;;;;;;242.70;35.67;;;7.70;99.90;;;;;;6278181;22;20902;-68
2021/11/23 07:41:22;;;;;;;170.77;34.27;;;7.70;99.90;;;;;;6288640;22;20489;-68
2021/11/23 07:43:52;;;;;;;300.77;34.47;;;7.80;99.90;;;;;;6251067;22;20838;-68
2021/11/23 07:46:20;;;;;;;174.17;25.93;;;7.70;99.90;;;;;;6278175;22;20498;-68
2021/11/23 07:48:48;;;;;;;182.10;26.70;;;7.80;99.90;;;;;;6251440;22;20747;-68
2021/11/23 07:51:16;;;;;;;107.77;23.63;;;7.80;99.90;;;;;;6289057;22;20413;-68
2021/11/23 07:53:44;;;;;;;101.40;21.10;;;7.80;99.90;;;;;;6288617;22;20438;-68
2021/11/23 07:56:13;;;;;;;172.77;24.27;;;7.80;99.90;;;;;;6251046;22;20407;-68
2021/11/23 07:58:41;;;;;;;112.60;25.37;;;7.80;99.90;;;;;;6288763;22;20400;-68
2021/11/23 08:01:11;;;;;;;173.80;30.87;;;7.80;99.90;;;;;;6289056;22;20499;-68
2021/11/23 08:03:40;;;;;;;164.57;32.97;;;7.80;99.90;;;;;;6288550;22;20419;-68
2021/11/23 08:06:08;;;;;;;150.43;23.93;;;7.90;99.90;;;;;;6288746;22;20396;-68
2021/11/23 08:08:36;;;;;;;194.67;29.17;;;7.90;99.90;;;;;;6288371;22;20484;-68
2021/11/23 08:11:05;;;;;;;70.20;21.87;;;7.90;99.90;;;;;;6279341;22;20402;-68
2021/11/23 08:13:33;;;;;;;221.37;31.60;;;7.90;99.90;;;;;;6291729;22;20442;-68
2021/11/23 08:16:04;;;;;;;196.40;38.13;;;7.90;99.90;;;;;;6281991;22;20488;-68
2021/11/23 08:18:35;;;;;;;129.63;27.43;;;7.90;99.90;;;;;;6291750;22;20752;-68
2021/11/23 08:21:04;;;;;;;227.03;29.20;;;7.90;99.90;;;;;;6292391;22;20392;-69
2021/11/23 08:23:33;;;;;;;104.93;23.57;;;7.90;99.90;;;;;;6292053;22;20421;-68
2021/11/23 08:26:02;;;;;;;141.33;27.53;;;7.90;99.90;;;;;;6292155;22;20491;-68
2021/11/23 08:28:30;;;;;;;200.83;34.93;;;7.90;99.90;;;;;;6279038;22;20412;-68
2021/11/23 08:30:59;;;;;;;182.30;27.90;;;7.90;99.90;;;;;;6250764;22;20897;-68
2021/11/23 08:33:27;;;;;;;187.03;32.40;;;7.90;99.90;;;;;;6250511;22;20495;-68
2021/11/23 08:35:57;;;;;;;137.17;35.80;;;8.00;99.90;;;;;;6287954;22;20399;-68
2021/11/23 08:38:25;;;;;;;162.03;38.67;;;8.00;99.90;;;;;;6288233;22;20402;-68
2021/11/23 08:40:53;;;;;;;229.77;31.17;;;8.00;99.90;;;;;;6288319;22;20395;-68
2021/11/23 08:43:22;;;;;;;93.10;27.33;;;8.00;99.90;;;;;;6288402;22;20396;-68
2021/11/23 08:45:50;;;;;;;207.33;42.20;;;8.00;99.90;;;;;;6279802;22;20432;-68
2021/11/23 08:48:18;;;;;;;182.20;28.27;;;8.00;99.90;;;;;;6288288;22;20894;-68
2021/11/23 08:50:47;;;;;;;144.20;25.47;;;8.10;99.90;;;;;;6250585;22;20459;-68
2021/11/23 08:53:16;;;;;;;177.67;36.73;;;8.10;99.90;;;;;;6287896;22;20404;-68
2021/11/23 08:55:44;;;;;;;108.17;30.53;;;8.10;99.90;;;;;;6288529;22;20423;-68
2021/11/23 08:58:12;;;;;;;190.10;31.63;;;8.20;99.90;;;;;;6277498;22;20499;-68
2021/11/23 09:00:42;;;;;;;51.27;21.03;;;8.20;99.90;;;;;;6250942;22;20415;-68
2021/11/23 09:03:11;;;;;;;241.00;34.47;;;8.20;99.90;;;;;;6288005;22;20870;-68
2021/11/23 09:05:39;;;;;;;264.60;36.90;;;8.20;99.90;;;;;;6287913;22;20393;-68
2021/11/23 09:08:07;;;;;;;195.17;29.33;;;8.20;99.90;;;;;;6277783;22;20431;-68
2021/11/23 09:10:40;;;;;;;138.53;23.60;;;8.30;99.90;;;;;;6288045;22;20435;-68
2021/11/23 09:13:09;;;;;;;215.23;30.40;;;8.30;99.90;;;;;;6287889;22;20413;-68
2021/11/23 09:15:37;;;;;;;220.93;27.27;;;8.30;99.90;;;;;;6287639;22;20432;-68
2021/11/23 09:18:07;;;;;;;118.53;20.33;;;8.30;99.90;;;;;;6250139;22;20884;-68
2021/11/23 09:20:36;;;;;;;220.67;27.50;;;8.30;99.90;;;;;;6277385;22;20411;-68
2021/11/23 09:23:06;;;;;;;109.30;23.03;;;8.40;99.90;;;;;;6287670;22;20399;-68
2021/11/23 09:25:36;;;;;;;215.37;28.40;;;8.40;99.90;;;;;;6250270;22;20736;-68
2021/11/23 09:28:06;;;;;;;288.03;43.77;;;8.40;99.90;;;;;;6288060;22;20862;-68
2021/11/23 09:30:35;;;;;;;281.83;40.13;;;8.50;99.90;;;;;;6250960;22;20815;-68
2021/11/23 09:33:05;;;;;;;184.27;29.17;;;8.50;99.90;;;;;;6287842;22;20396;-68
2021/11/23 09:35:34;;;;;;;200.50;31.10;;;8.50;99.90;;;;;;6287685;22;20758;-68
2021/11/23 09:38:03;;;;;;;252.27;35.77;;;8.60;99.90;;;;;;6277805;22;20439;-68
2021/11/23 09:40:31;;;;;;;278.57;34.90;;;8.60;99.90;;;;;;6287782;22;20778;-68
2021/11/23 09:43:00;;;;;;;132.60;22.40;;;8.50;99.90;;;;;;6288240;22;20886;-68
2021/11/23 09:45:30;;;;;;;231.97;33.17;;;8.50;99.90;;;;;;6287360;22;20412;-68
2021/11/23 09:48:03;;;;;;;132.97;29.77;;;8.50;99.90;;;;;;6288084;22;20395;-68
2021/11/23 09:50:31;;;;;;;102.90;21.43;;;8.60;99.90;;;;;;6288030;22;20391;-68
2021/11/23 09:52:59;;;;;;;136.17;21.50;;;8.60;99.90;;;;;;6287645;22;20398;-68
2021/11/23 09:55:28;;;;;;;241.07;32.53;;;8.60;99.90;;;;;;6287480;22;20438;-68
2021/11/23 09:57:56;;;;;;;192.97;25.30;;;8.60;99.90;;;;;;6287488;22;20790;-68
2021/11/23 10:00:28;;;;;;;285.00;33.57;;;8.60;99.90;;;;;;6287484;22;20434;-68
2021/11/23 10:03:02;;;;;;;141.57;19.90;;;8.60;99.90;;;;;;6288056;22;20383;-68
2021/11/23 10:05:34;;;;;;;242.57;33.27;;;8.70;99.90;;;;;;6288053;22;20846;-68
2021/11/23 10:08:11;;;;;;;225.83;29.03;;;8.70;99.90;;;;;;6288181;22;20464;-68
2021/11/23 10:10:45;;;;;;;250.97;28.77;;;8.80;99.90;;;;;;6277747;22;20862;-68
2021/11/23 10:13:15;;;;;;;213.33;24.43;;;8.80;99.90;;;;;;6289282;22;20896;-68
2021/11/23 10:15:46;;;;;;;129.37;20.90;;;8.80;99.90;;;;;;6291953;22;20475;-68
2021/11/23 10:18:21;;;;;;;86.40;16.73;;;8.80;99.90;;;;;;6294041;22;20799;-68
2021/11/23 10:20:50;;;;;;;86.10;15.90;;;8.90;99.90;;;;;;6294762;22;20389;-68
2021/11/23 10:23:22;;;;;;;185.33;23.27;;;8.90;99.90;;;;;;6284919;22;20402;-68
2021/11/23 10:25:52;;;;;;;155.37;14.83;;;8.90;99.90;;;;;;6295523;22;20381;-68
2021/11/23 10:28:22;;;;;;;149.03;18.87;;;9.00;99.90;;;;;;6295745;22;20832;-68
2021/11/23 10:30:51;;;;;;;195.90;31.70;;;9.00;99.90;;;;;;6255697;22;20414;-68
2021/11/23 10:33:21;;;;;;;193.93;25.03;;;9.00;99.90;;;;;;6287721;22;20484;-68
2021/11/23 10:35:54;;;;;;;237.30;33.63;;;9.10;99.90;;;;;;6287040;22;20515;-68
2021/11/23 10:38:24;;;;;;;243.47;25.67;;;9.10;99.90;;;;;;6287393;22;20408;-68
2021/11/23 10:40:53;;;;;;;282.30;33.10;;;9.20;99.90;;;;;;6249488;22;20816;-68
2021/11/23 10:43:22;;;;;;;155.30;31.10;;;9.20;99.90;;;;;;6287275;22;20728;-68
2021/11/23 10:45:53;;;;;;;247.03;28.47;;;9.20;99.90;;;;;;6286878;22;20404;-68
2021/11/23 10:48:24;;;;;;;300.57;31.83;;;9.20;99.90;;;;;;6249763;22;20413;-68
2021/11/23 10:51:05;;;;;;;240.27;27.37;;;9.20;99.90;;;;;;6287881;22;20392;-68
2021/11/23 10:53:35;;;;;;;293.07;37.33;;;9.20;99.90;;;;;;6287243;22;20448;-68
2021/11/23 10:56:12;;;;;;;507.07;49.77;;;9.30;99.90;;;;;;6287200;22;20424;-68
2021/11/23 10:58:42;;;;;;;261.07;40.43;;;9.30;99.90;;;;;;6277022;22;20393;-68
2021/11/23 11:01:11;;;;;;;249.30;30.53;;;9.30;99.90;;;;;;6249886;22;20423;-68
2021/11/23 11:03:42;;;;;;;237.13;29.00;;;9.40;99.90;;;;;;6286770;22;20417;-68
2021/11/23 11:06:11;;;;;;;342.23;48.37;;;9.40;99.90;;;;;;6287563;22;20412;-68
2021/11/23 11:08:43;;;;;;;216.53;21.20;;;9.50;99.90;;;;;;6286862;22;20775;-68
2021/11/23 11:11:16;;;;;;;275.43;30.80;;;9.50;99.90;;;;;;6289607;22;20722;-68
2021/11/23 11:13:48;;;;;;;258.87;32.03;;;9.50;99.90;;;;;;6289171;22;20412;-68
2021/11/23 11:16:17;;;;;;;252.57;38.83;;;9.50;99.90;;;;;;6289346;22;20413;-68
2021/11/23 11:19:07;;;;;;;226.43;23.70;;;9.50;99.90;;;;;;6288812;22;20399;-68
2021/11/23 11:21:40;;;;;;;277.30;31.63;;;9.50;99.90;;;;;;6289682;22;20411;-68
2021/11/23 11:24:26;;;;;;;250.40;28.73;;;9.50;99.90;;;;;;6289125;22;20415;-68
2021/11/23 11:27:01;;;;;;;156.00;21.70;;;9.60;99.90;;;;;;6289069;22;20416;-68
2021/11/23 11:29:30;;;;;;;313.93;33.70;;;9.60;99.90;;;;;;6288722;22;20379;-68
2021/11/23 11:31:59;;;;;;;341.40;49.00;;;9.50;99.90;;;;;;6288725;22;20880;-68
2021/11/23 11:34:30;;;;;;;198.80;20.30;;;9.60;99.90;;;;;;6288721;22;20923;-68
2021/11/23 11:37:09;;;;;;;309.27;50.17;;;9.50;99.90;;;;;;6252019;22;20400;-68
2021/11/23 11:39:52;;;;;;;268.77;32.57;;;9.60;99.90;;;;;;6251908;22;20434;-68
2021/11/23 11:43:03;;;;;;;276.60;32.07;;;9.60;99.90;;;;;;6288619;22;20377;-68
2021/11/23 11:45:43;;;;;;;188.60;25.97;;;9.60;99.90;;;;;;6282184;22;20966;-68
2021/11/23 11:48:51;;;;;;;381.17;48.87;;;9.60;99.90;;;;;;6289199;22;20373;-68
2021/11/23 11:51:28;;;;;;;257.10;39.53;;;9.70;99.90;;;;;;6288935;22;20411;-68
2021/11/23 11:53:58;;;;;;;290.90;39.07;;;9.70;99.90;;;;;;6288668;22;20504;-68
2021/11/23 11:56:48;;;;;;;406.97;43.80;;;9.70;99.90;;;;;;6251143;22;20436;-68
2021/11/23 11:59:33;;;;;;;380.70;46.83;;;9.80;99.90;;;;;;6288383;22;20384;-68
2021/11/23 12:02:06;;;;;;;150.83;24.80;;;9.80;99.90;;;;;;6289139;22;20388;-68
2021/11/23 12:04:59;;;;;;;419.47;46.70;;;9.80;99.90;;;;;;6250924;22;20488;-68
2021/11/23 12:07:42;;;;;;;354.73;40.10;;;9.90;99.90;;;;;;6289105;22;20415;-68
2021/11/23 12:10:24;;;;;;;250.57;33.40;;;9.90;99.90;;;;;;6250857;22;20404;-68
2021/11/23 12:13:10;;;;;;;525.63;68.03;;;9.90;99.90;;;;;;6289218;22;20697;-68
2021/11/23 12:15:57;;;;;;;390.83;58.70;;;9.90;99.90;;;;;;6288129;22;20512;-68
2021/11/23 12:18:46;;;;;;;452.10;47.23;;;10.00;99.90;;;;;;6289128;22;20377;-68
2021/11/23 12:21:16;;;;;;;242.87;34.90;;;10.00;99.90;;;;;;6250883;22;20747;-68
2021/11/23 12:23:53;;;;;;;355.87;39.80;;;10.00;99.90;;;;;;6278522;22;20420;-68
2021/11/23 12:26:25;;;;;;;368.97;42.43;;;10.00;99.90;;;;;;6288748;22;20464;-68
2021/11/23 12:28:55;;;;;;;401.03;52.73;;;10.00;99.90;;;;;;6278644;22;20473;-68
2021/11/23 12:31:25;;;;;;;436.77;62.93;;;10.00;99.90;;;;;;6288089;22;20412;-68
2021/11/23 12:33:58;;;;;;;380.03;53.97;;;10.00;99.90;;;;;;6289856;22;20470;-68
2021/11/23 12:36:28;;;;;;;397.57;61.97;;;10.00;99.90;;;;;;6288560;22;20409;-68
2021/11/23 12:39:10;;;;;;;389.97;73.50;;;10.00;99.90;;;;;;6288256;22;20446;-68
2021/11/23 12:41:38;;;;;;;368.33;45.40;;;10.10;99.90;;;;;;6288389;22;20378;-68